< < Back
Terminal Aerodrome Forecast


Current Version              Previous Versions:   1  2  3  4  5  6  7  8  9  

Terminal Aerodrome Forecast

013
FTUS42 KCHS 282320
TAFCHS
TAF
KCHS 282320Z 0100/0124 05009KT P6SM -RA OVC025
     FM010400 03012G17KT P6SM -RA OVC015
     FM011100 03009KT 6SM -RA BR OVC008
     FM011700 VRB06KT 5SM -DZ BR OVC006=



Latest METAR

163
SAUS80 KWBC 010800 RRL
MTRCHS
METAR KCHS 010756Z 04009KT 10SM OVC014 04/02 A3050 RMK AO2 RAE46 SLP328
P0001 T00440017


USA.gov is the U.S. government's official web portal to all federal, state and local government web resources and services.